Time;durP1;ratioP1;P1;durP2;ratioP2;P2;SDS_P1;SDS_P2;PMS_P1;PMS_P2;Temp;Humidity;BMP_temperature;BMP_pressure;BME280_temperature;BME280_humidity;BME280_pressure;Samples;Min_cycle;Max_cycle;Signal;HPM_P1;HPM_P2
2021/06/05 00:00:16;;;;;;;12.13;11.00;;;20.80;69.10;;;;;;5036091;28;20025;-69
2021/06/05 00:02:42;;;;;;;9.60;8.60;;;20.80;68.60;;;;;;5006146;28;20491;-69
2021/06/05 00:05:08;;;;;;;12.68;9.05;;;20.80;68.70;;;;;;5033705;28;20041;-69
2021/06/05 00:07:34;;;;;;;20.13;10.02;;;20.80;68.30;;;;;;5038287;28;20025;-69
2021/06/05 00:09:59;;;;;;;11.02;9.90;;;20.80;68.20;;;;;;5037451;28;20401;-69
2021/06/05 00:12:27;;;;;;;9.80;8.90;;;20.70;68.90;;;;;;5036057;28;20037;-69
2021/06/05 00:14:53;;;;;;;10.10;9.13;;;20.60;68.60;;;;;;5034901;28;20022;-69
2021/06/05 00:17:20;;;;;;;10.25;9.02;;;20.70;68.60;;;;;;5036015;28;20197;-69
2021/06/05 00:19:45;;;;;;;11.25;10.10;;;20.70;68.70;;;;;;5037041;28;20040;-69
2021/06/05 00:22:12;;;;;;;9.88;8.82;;;20.70;68.90;;;;;;5037249;28;20392;-69
2021/06/05 00:24:39;;;;;;;11.32;10.23;;;20.60;68.70;;;;;;5038797;28;20023;-70
2021/06/05 00:27:05;;;;;;;10.85;9.82;;;20.60;68.80;;;;;;5036957;28;20033;-70
2021/06/05 00:29:30;;;;;;;11.48;10.15;;;20.50;69.00;;;;;;5035778;28;20033;-70
2021/06/05 00:31:56;;;;;;;10.65;9.65;;;20.40;69.70;;;;;;5038699;28;20033;-68
2021/06/05 00:34:21;;;;;;;10.30;8.90;;;20.30;69.80;;;;;;5035462;28;20075;-68
2021/06/05 00:36:47;;;;;;;12.30;10.52;;;20.30;69.30;;;;;;5036957;28;20025;-67
2021/06/05 00:39:12;;;;;;;13.45;10.60;;;20.40;69.70;;;;;;5037024;28;20099;-68
2021/06/05 00:41:39;;;;;;;10.88;9.90;;;20.40;69.70;;;;;;5038988;28;20434;-68
2021/06/05 00:44:07;;;;;;;10.25;9.15;;;20.40;69.50;;;;;;5036503;28;20033;-69
2021/06/05 00:46:33;;;;;;;11.95;10.18;;;20.40;69.30;;;;;;5038210;28;20039;-69
2021/06/05 00:49:01;;;;;;;13.45;9.93;;;20.40;69.30;;;;;;5035403;28;20438;-69
2021/06/05 00:51:48;;;;;;;13.27;10.52;;;20.50;69.50;;;;;;5035805;28;20033;-69
2021/06/05 00:54:16;;;;;;;13.30;10.85;;;20.40;69.80;;;;;;5037641;28;20906;-69
2021/06/05 00:56:44;;;;;;;14.13;10.63;;;20.30;70.20;;;;;;5036421;28;20045;-68
2021/06/05 00:59:10;;;;;;;11.85;10.63;;;20.20;69.90;;;;;;5037801;28;20107;-68
2021/06/05 01:01:36;;;;;;;13.50;12.23;;;20.30;70.40;;;;;;5037366;28;20029;-69
2021/06/05 01:04:01;;;;;;;14.27;10.10;;;20.20;70.40;;;;;;5036839;28;20040;-69
2021/06/05 01:06:50;;;;;;;11.93;9.90;;;20.10;69.90;;;;;;5037167;28;20536;-69
2021/06/05 01:09:20;;;;;;;11.20;10.10;;;20.10;70.20;;;;;;5031748;28;20040;-69
2021/06/05 01:12:07;;;;;;;12.85;9.98;;;20.10;71.20;;;;;;5035292;28;20033;-68
2021/06/05 01:14:41;;;;;;;12.90;10.48;;;20.00;71.40;;;;;;5036803;28;20175;-68
2021/06/05 01:17:12;;;;;;;11.50;10.40;;;19.90;71.70;;;;;;5020217;28;20546;-68
2021/06/05 01:19:50;;;;;;;12.25;11.07;;;19.80;73.20;;;;;;5032201;28;20118;-68
2021/06/05 01:22:41;;;;;;;12.75;11.20;;;19.70;73.60;;;;;;5034177;28;20104;-68
2021/06/05 01:25:15;;;;;;;12.75;11.40;;;19.70;72.90;;;;;;5014731;28;20815;-68
2021/06/05 01:27:49;;;;;;;12.85;11.68;;;19.70;72.10;;;;;;5041263;28;20025;-68
2021/06/05 01:30:28;;;;;;;13.25;11.50;;;19.70;72.20;;;;;;5034290;28;20024;-68
2021/06/05 01:32:57;;;;;;;12.88;10.82;;;19.60;73.30;;;;;;5039665;28;20384;-68
2021/06/05 01:35:23;;;;;;;13.02;10.52;;;19.60;73.50;;;;;;5040546;28;20087;-69
2021/06/05 01:37:50;;;;;;;13.80;11.00;;;19.50;73.30;;;;;;5041284;28;20067;-68
2021/06/05 01:40:16;;;;;;;12.07;10.90;;;19.50;73.70;;;;;;5039903;28;20021;-69
2021/06/05 01:42:44;;;;;;;11.48;10.35;;;19.50;74.30;;;;;;5041199;28;20071;-68
2021/06/05 01:45:19;;;;;;;11.30;9.80;;;19.50;73.90;;;;;;5040484;28;20041;-68
2021/06/05 01:47:45;;;;;;;11.85;10.75;;;19.60;73.30;;;;;;5036441;28;20032;-68
2021/06/05 01:50:13;;;;;;;14.05;12.63;;;19.80;73.00;;;;;;5038720;28;20041;-68
2021/06/05 01:52:40;;;;;;;10.50;9.63;;;19.80;73.60;;;;;;5042157;28;20055;-68
2021/06/05 01:55:20;;;;;;;12.20;10.73;;;19.60;72.90;;;;;;5040812;28;20029;-68
2021/06/05 01:57:55;;;;;;;13.02;11.80;;;19.60;72.80;;;;;;5039527;28;20029;-68
2021/06/05 02:00:45;;;;;;;12.85;11.60;;;19.60;73.20;;;;;;5040403;28;20516;-68
2021/06/05 02:03:12;;;;;;;12.18;10.93;;;19.50;73.30;;;;;;5037703;28;20482;-68
2021/06/05 02:05:40;;;;;;;12.15;11.05;;;19.50;73.90;;;;;;5040075;28;20040;-68
2021/06/05 02:08:07;;;;;;;12.35;11.05;;;19.40;74.90;;;;;;5039494;28;20086;-68
2021/06/05 02:10:35;;;;;;;16.25;11.80;;;19.30;75.10;;;;;;5038641;28;20053;-68
2021/06/05 02:13:00;;;;;;;12.18;11.02;;;19.30;74.40;;;;;;5023175;28;20037;-69
2021/06/05 02:15:43;;;;;;;14.90;9.77;;;19.30;74.10;;;;;;5041602;28;20530;-69
2021/06/05 02:18:12;;;;;;;14.15;12.82;;;19.30;73.70;;;;;;5036552;28;20041;-69
2021/06/05 02:20:43;;;;;;;13.88;11.23;;;19.50;73.90;;;;;;5037619;28;20033;-68
2021/06/05 02:23:15;;;;;;;13.43;12.07;;;19.50;73.60;;;;;;5039751;28;20409;-68
2021/06/05 02:25:41;;;;;;;13.90;10.90;;;19.50;73.30;;;;;;5040556;28;20037;-68
2021/06/05 02:28:08;;;;;;;12.57;11.35;;;19.50;72.80;;;;;;5038655;28;20032;-68
2021/06/05 02:30:33;;;;;;;13.00;11.63;;;19.50;73.20;;;;;;5039223;28;20500;-69
2021/06/05 02:33:00;;;;;;;15.40;12.25;;;19.40;73.80;;;;;;5041087;28;20061;-68
2021/06/05 02:35:31;;;;;;;14.15;13.00;;;19.20;74.00;;;;;;5036894;28;20434;-68
2021/06/05 02:37:56;;;;;;;13.13;11.93;;;19.00;75.80;;;;;;5037362;28;20029;-68
2021/06/05 02:40:26;;;;;;;13.57;12.32;;;18.90;75.60;;;;;;5039894;28;20025;-68
2021/06/05 02:42:52;;;;;;;13.80;12.02;;;18.90;75.10;;;;;;5038468;28;20053;-69
2021/06/05 02:45:43;;;;;;;14.88;12.80;;;18.90;75.20;;;;;;5039588;28;20022;-69
2021/06/05 02:48:09;;;;;;;14.43;13.13;;;18.90;75.70;;;;;;5037859;28;20534;-68
2021/06/05 02:50:42;;;;;;;15.13;13.43;;;18.90;76.00;;;;;;5039310;28;20030;-68
2021/06/05 02:53:08;;;;;;;14.15;12.85;;;18.90;76.00;;;;;;5039882;28;20333;-68
2021/06/05 02:55:34;;;;;;;13.70;12.48;;;18.80;76.40;;;;;;5039424;28;20419;-69
2021/06/05 02:58:00;;;;;;;15.07;13.35;;;18.80;76.20;;;;;;5039335;28;20033;-68
2021/06/05 03:00:39;;;;;;;15.18;13.77;;;18.90;76.40;;;;;;5038852;28;20715;-69
2021/06/05 03:03:07;;;;;;;22.08;13.68;;;18.90;76.40;;;;;;5040140;28;20040;-68
2021/06/05 03:05:33;;;;;;;14.82;13.02;;;18.90;75.80;;;;;;5036677;28;20029;-68
2021/06/05 03:08:00;;;;;;;18.80;14.57;;;18.80;76.70;;;;;;5035451;28;20029;-68
2021/06/05 03:10:31;;;;;;;14.40;12.73;;;18.70;77.50;;;;;;5040512;28;20029;-68
2021/06/05 03:12:57;;;;;;;14.68;13.02;;;18.60;77.50;;;;;;5039093;28;20496;-68
2021/06/05 03:15:24;;;;;;;14.82;12.65;;;18.50;78.20;;;;;;5037091;28;20100;-68
2021/06/05 03:17:50;;;;;;;18.73;14.07;;;18.50;78.50;;;;;;5039972;28;20574;-68
2021/06/05 03:20:20;;;;;;;15.05;13.52;;;18.40;78.90;;;;;;5037214;28;20041;-68
2021/06/05 03:22:46;;;;;;;15.15;13.02;;;18.40;79.00;;;;;;5037315;28;20065;-68
2021/06/05 03:25:13;;;;;;;17.75;15.05;;;18.30;78.50;;;;;;5037565;28;20068;-68
2021/06/05 03:27:39;;;;;;;16.30;14.70;;;18.40;78.80;;;;;;5022760;28;20033;-67
2021/06/05 03:30:07;;;;;;;15.05;13.63;;;18.50;78.80;;;;;;5039592;28;20059;-68
2021/06/05 03:32:33;;;;;;;17.77;15.77;;;18.40;79.20;;;;;;5037968;28;20029;-68
2021/06/05 03:34:58;;;;;;;15.27;13.30;;;18.30;80.10;;;;;;5037507;28;20045;-68
2021/06/05 03:37:24;;;;;;;16.13;14.48;;;18.10;80.10;;;;;;5039658;28;20021;-68
2021/06/05 03:39:49;;;;;;;15.75;14.25;;;18.10;80.40;;;;;;5034856;28;20025;-68
2021/06/05 03:42:17;;;;;;;15.00;13.65;;;18.10;80.80;;;;;;5036895;28;20021;-68
2021/06/05 03:44:43;;;;;;;15.50;13.93;;;18.20;80.50;;;;;;5037689;28;20033;-68
2021/06/05 03:47:08;;;;;;;16.83;13.68;;;18.40;80.00;;;;;;5040562;28;20036;-68
2021/06/05 03:49:34;;;;;;;18.10;14.48;;;18.70;79.30;;;;;;5028416;28;20106;-68
2021/06/05 03:52:00;;;;;;;16.27;13.70;;;18.90;79.30;;;;;;5040484;28;20028;-69
2021/06/05 03:54:26;;;;;;;15.68;13.82;;;19.10;78.40;;;;;;5036176;28;20044;-68
2021/06/05 03:56:51;;;;;;;16.83;14.77;;;19.30;77.90;;;;;;5038478;28;20487;-68
2021/06/05 03:59:17;;;;;;;15.18;13.65;;;19.40;77.60;;;;;;5017586;28;20037;-68
2021/06/05 04:01:43;;;;;;;15.10;13.60;;;19.50;77.10;;;;;;5040323;28;20018;-69
2021/06/05 04:04:08;;;;;;;14.20;12.68;;;19.70;76.80;;;;;;5038988;28;20405;-70
2021/06/05 04:06:34;;;;;;;13.55;12.25;;;19.70;76.20;;;;;;5037671;28;20492;-69
2021/06/05 04:09:00;;;;;;;15.30;13.30;;;19.80;75.80;;;;;;5035307;28;20052;-68
2021/06/05 04:11:28;;;;;;;20.13;14.07;;;20.00;74.80;;;;;;5036677;28;20039;-69
2021/06/05 04:13:55;;;;;;;14.55;13.18;;;20.00;74.70;;;;;;5036607;28;20025;-68
2021/06/05 04:16:22;;;;;;;14.75;13.20;;;20.20;74.40;;;;;;5038540;28;20024;-68
2021/06/05 04:18:48;;;;;;;15.93;13.32;;;20.30;73.70;;;;;;5037740;28;20021;-68
2021/06/05 04:21:19;;;;;;;15.48;13.88;;;20.30;73.50;;;;;;5038453;28;20021;-68
2021/06/05 04:23:45;;;;;;;16.50;14.75;;;20.20;74.00;;;;;;5036018;28;20033;-68
2021/06/05 04:26:10;;;;;;;21.42;13.52;;;20.20;74.10;;;;;;5037286;28;20041;-68
2021/06/05 04:28:37;;;;;;;15.50;13.77;;;19.90;74.50;;;;;;5033516;28;20029;-68
2021/06/05 04:31:04;;;;;;;16.30;13.10;;;19.70;75.40;;;;;;5036028;28;20103;-68
2021/06/05 04:33:31;;;;;;;15.80;13.48;;;19.80;75.70;;;;;;5037778;28;20508;-68
2021/06/05 04:35:59;;;;;;;15.50;13.38;;;20.30;75.00;;;;;;5038057;28;20108;-69
2021/06/05 04:38:25;;;;;;;13.98;12.52;;;20.90;73.70;;;;;;5036743;28;20029;-69
2021/06/05 04:40:51;;;;;;;14.55;13.25;;;21.50;72.80;;;;;;5019770;28;20033;-69
2021/06/05 04:43:18;;;;;;;14.52;13.05;;;22.00;71.60;;;;;;5036354;28;20515;-69
2021/06/05 04:45:45;;;;;;;13.88;12.50;;;22.30;68.70;;;;;;5037293;28;20036;-69
2021/06/05 04:48:11;;;;;;;14.10;12.80;;;22.20;68.00;;;;;;5035786;28;20423;-69
2021/06/05 04:50:39;;;;;;;13.63;12.18;;;22.10;68.00;;;;;;5038335;28;20021;-69
2021/06/05 04:53:05;;;;;;;18.83;15.15;;;21.80;69.50;;;;;;5036925;28;20638;-69
2021/06/05 04:55:31;;;;;;;14.43;11.65;;;21.50;69.60;;;;;;5039567;28;20029;-69
2021/06/05 04:57:57;;;;;;;18.95;13.80;;;21.20;70.40;;;;;;5020122;28;20039;-69
2021/06/05 05:00:36;;;;;;;16.13;11.70;;;21.10;70.90;;;;;;5033344;28;20096;-69
2021/06/05 05:03:03;;;;;;;14.82;13.40;;;21.00;71.20;;;;;;5038498;28;20053;-69
2021/06/05 05:05:30;;;;;;;14.25;12.63;;;20.90;71.10;;;;;;5027905;28;20112;-69
2021/06/05 05:07:56;;;;;;;14.82;13.25;;;20.70;71.90;;;;;;5036773;28;20025;-69
2021/06/05 05:10:26;;;;;;;17.27;13.50;;;20.50;72.30;;;;;;5037352;28;20033;-68
2021/06/05 05:12:52;;;;;;;16.17;14.45;;;20.60;73.20;;;;;;5032399;28;20462;-69
2021/06/05 05:15:17;;;;;;;15.50;13.98;;;20.70;72.90;;;;;;5037043;28;20049;-69
2021/06/05 05:17:43;;;;;;;14.90;13.43;;;20.60;72.60;;;;;;5031194;28;20083;-69
2021/06/05 05:20:11;;;;;;;17.65;14.15;;;20.40;72.90;;;;;;5037208;28;20439;-69
2021/06/05 05:22:39;;;;;;;14.80;13.48;;;20.40;73.20;;;;;;5010626;28;20025;-69
2021/06/05 05:25:05;;;;;;;16.38;14.45;;;20.50;73.20;;;;;;5008189;28;20053;-68
2021/06/05 05:27:30;;;;;;;17.67;14.85;;;20.60;73.20;;;;;;5029983;28;20044;-69
2021/06/05 05:29:56;;;;;;;17.58;15.65;;;20.60;73.20;;;;;;5031832;28;20112;-69
2021/06/05 05:32:22;;;;;;;20.27;15.82;;;20.60;73.00;;;;;;5030803;28;20056;-69
2021/06/05 05:34:48;;;;;;;49.42;40.10;;;20.70;73.30;;;;;;5011952;28;20074;-68
2021/06/05 05:37:13;;;;;;;27.73;23.75;;;20.70;73.20;;;;;;5034608;28;20037;-68
2021/06/05 05:39:39;;;;;;;17.40;15.15;;;21.00;73.00;;;;;;5036242;28;20022;-69
2021/06/05 05:42:04;;;;;;;16.05;14.50;;;21.10;72.90;;;;;;5038144;28;20032;-69
2021/06/05 05:44:30;;;;;;;14.40;13.18;;;21.30;72.60;;;;;;5035549;28;20079;-67
2021/06/05 05:46:55;;;;;;;15.27;13.75;;;21.40;72.40;;;;;;5035470;28;20110;-68
2021/06/05 05:49:21;;;;;;;17.77;16.05;;;21.60;71.40;;;;;;5019293;28;20038;-68
2021/06/05 05:51:47;;;;;;;19.45;17.50;;;21.50;71.00;;;;;;5035570;28;20074;-68
2021/06/05 05:54:12;;;;;;;18.55;16.75;;;21.40;71.40;;;;;;5036897;28;20504;-68
2021/06/05 05:56:38;;;;;;;20.27;17.40;;;21.50;71.60;;;;;;5036589;28;20468;-68
2021/06/05 05:59:04;;;;;;;17.27;15.45;;;21.50;71.50;;;;;;5037245;28;20037;-68
2021/06/05 06:01:30;;;;;;;16.55;14.63;;;21.30;71.00;;;;;;5037306;28;20104;-68
2021/06/05 06:03:57;;;;;;;16.35;14.85;;;21.20;72.20;;;;;;5036540;28;20055;-68
2021/06/05 06:06:29;;;;;;;25.25;19.25;;;21.10;72.40;;;;;;5037216;28;20026;-68
2021/06/05 06:08:55;;;;;;;20.58;15.10;;;21.20;72.20;;;;;;5034567;28;20033;-68
2021/06/05 06:11:22;;;;;;;15.55;13.95;;;21.40;71.70;;;;;;5010237;28;20037;-67
2021/06/05 06:13:47;;;;;;;17.60;15.40;;;21.30;71.80;;;;;;5022498;28;20435;-68
2021/06/05 06:16:15;;;;;;;18.48;16.35;;;21.30;72.20;;;;;;5040722;28;20132;-68
2021/06/05 06:18:41;;;;;;;18.90;16.85;;;21.30;72.30;;;;;;5039266;28;20461;-70
2021/06/05 06:21:09;;;;;;;17.67;15.95;;;21.50;72.20;;;;;;5021427;28;20036;-69
2021/06/05 06:23:37;;;;;;;17.30;15.45;;;21.70;71.80;;;;;;5037409;28;20048;-68
2021/06/05 06:26:06;;;;;;;21.55;17.38;;;21.90;71.80;;;;;;5037725;28;20124;-67
2021/06/05 06:28:37;;;;;;;17.77;15.82;;;22.10;71.60;;;;;;5037747;28;20831;-67
2021/06/05 06:31:05;;;;;;;16.90;15.15;;;22.10;71.10;;;;;;5040372;28;20025;-67
2021/06/05 06:33:31;;;;;;;17.55;14.90;;;22.10;70.90;;;;;;5040313;28;20037;-68
2021/06/05 06:35:57;;;;;;;15.73;14.23;;;22.10;70.90;;;;;;5039391;28;20083;-68
2021/06/05 06:38:34;;;;;;;17.10;14.68;;;22.10;70.70;;;;;;5038484;28;20025;-67
2021/06/05 06:41:01;;;;;;;17.58;15.88;;;22.10;71.00;;;;;;5040065;28;20025;-67
2021/06/05 06:43:29;;;;;;;17.58;15.20;;;22.30;71.20;;;;;;5038327;28;20056;-67
2021/06/05 06:45:55;;;;;;;20.73;18.63;;;22.60;71.00;;;;;;5038768;28;20507;-68
2021/06/05 06:48:22;;;;;;;33.65;26.50;;;22.80;70.80;;;;;;5039542;28;20033;-68
2021/06/05 06:50:48;;;;;;;24.25;20.83;;;23.00;70.10;;;;;;5020885;28;20502;-69
2021/06/05 06:53:14;;;;;;;27.50;18.65;;;23.10;69.90;;;;;;5039359;28;20738;-70
2021/06/05 06:55:40;;;;;;;18.65;16.65;;;23.20;69.60;;;;;;5040440;28;20028;-69
2021/06/05 06:58:05;;;;;;;20.83;18.55;;;23.30;69.50;;;;;;5039060;28;20029;-70
2021/06/05 07:00:36;;;;;;;16.90;15.00;;;23.30;69.30;;;;;;5038627;28;20345;-69
2021/06/05 07:03:02;;;;;;;20.00;18.08;;;23.30;69.20;;;;;;5040329;28;20525;-69
2021/06/05 07:05:28;;;;;;;19.65;17.60;;;23.30;69.50;;;;;;5038792;28;20116;-69
2021/06/05 07:08:33;;;;;;;32.33;28.77;;;23.20;69.60;;;;;;5021500;28;20036;-68
2021/06/05 07:11:02;;;;;;;21.20;19.00;;;23.20;69.90;;;;;;5000370;28;20068;-68
2021/06/05 07:13:28;;;;;;;20.40;18.17;;;23.20;69.90;;;;;;5033709;28;20036;-68
2021/06/05 07:15:56;;;;;;;22.67;19.40;;;23.40;69.70;;;;;;5032789;28;20025;-71
2021/06/05 07:18:23;;;;;;;18.70;16.83;;;23.40;69.60;;;;;;5037780;28;20017;-71
2021/06/05 07:20:50;;;;;;;20.42;18.42;;;23.60;69.80;;;;;;5031900;28;20111;-70
2021/06/05 07:23:18;;;;;;;18.00;16.40;;;23.60;69.70;;;;;;5035028;28;20033;-73
2021/06/05 07:25:44;;;;;;;19.15;17.42;;;23.70;69.80;;;;;;5030376;28;20040;-70
2021/06/05 07:28:24;;;;;;;18.55;16.85;;;23.70;69.50;;;;;;5031550;28;20382;-68
2021/06/05 07:30:51;;;;;;;22.65;17.67;;;23.90;69.50;;;;;;5029806;28;20515;-70
2021/06/05 07:33:17;;;;;;;18.45;16.42;;;24.10;69.20;;;;;;5036511;28;20037;-69
2021/06/05 07:35:43;;;;;;;20.15;18.30;;;24.10;69.00;;;;;;5023225;28;20565;-70
2021/06/05 07:38:11;;;;;;;20.73;16.20;;;24.10;69.00;;;;;;5033267;28;20056;-72
2021/06/05 07:40:37;;;;;;;26.90;17.20;;;24.00;69.00;;;;;;5017441;28;20506;-71
2021/06/05 07:43:03;;;;;;;20.90;17.88;;;24.00;69.10;;;;;;5037773;28;20483;-68
2021/06/05 07:45:29;;;;;;;21.38;19.13;;;24.10;69.10;;;;;;5035610;28;20108;-69
2021/06/05 07:47:55;;;;;;;22.02;17.42;;;24.10;68.70;;;;;;5036555;28;20550;-69
2021/06/05 07:50:22;;;;;;;17.92;16.27;;;24.10;69.10;;;;;;5007598;28;20441;-68
2021/06/05 07:52:48;;;;;;;19.77;17.52;;;24.20;69.10;;;;;;5010133;28;20567;-71
2021/06/05 07:55:13;;;;;;;20.00;16.73;;;24.30;68.90;;;;;;5034890;28;20066;-68
2021/06/05 07:57:39;;;;;;;24.48;17.15;;;24.40;68.60;;;;;;5021196;28;20164;-68
2021/06/05 08:00:13;;;;;;;22.25;18.20;;;24.40;68.60;;;;;;5036868;28;20060;-69
2021/06/05 08:02:38;;;;;;;25.92;17.75;;;24.40;68.30;;;;;;5032056;28;20060;-68
2021/06/05 08:05:06;;;;;;;17.65;15.95;;;24.20;68.20;;;;;;5034362;28;20063;-69
2021/06/05 08:07:31;;;;;;;19.30;17.50;;;24.10;68.60;;;;;;5034727;28;20037;-68
2021/06/05 08:09:57;;;;;;;17.10;15.40;;;24.00;68.60;;;;;;5019077;28;20029;-68
2021/06/05 08:12:22;;;;;;;18.10;16.25;;;24.10;69.00;;;;;;5032662;28;20021;-73
2021/06/05 08:14:48;;;;;;;17.98;16.17;;;24.20;68.60;;;;;;5031643;28;20867;-68
2021/06/05 08:17:14;;;;;;;15.25;13.77;;;24.30;68.00;;;;;;5034009;28;20029;-69
2021/06/05 08:19:40;;;;;;;15.98;14.27;;;24.40;68.30;;;;;;5026996;28;20488;-69
2021/06/05 08:22:06;;;;;;;20.48;15.70;;;24.50;68.60;;;;;;5032281;28;20514;-70
2021/06/05 08:24:32;;;;;;;18.17;16.48;;;24.50;68.00;;;;;;5027818;28;20061;-70
2021/06/05 08:26:57;;;;;;;18.45;16.80;;;24.60;67.90;;;;;;5037339;28;20616;-70
2021/06/05 08:29:23;;;;;;;19.45;17.60;;;24.60;67.90;;;;;;5036480;28;20125;-70
2021/06/05 08:31:49;;;;;;;17.45;15.75;;;24.60;67.60;;;;;;5037400;28;20069;-70
2021/06/05 08:34:16;;;;;;;19.60;17.65;;;24.50;67.80;;;;;;5035223;28;20131;-70
2021/06/05 08:36:43;;;;;;;20.08;18.13;;;24.40;67.80;;;;;;5036755;28;20036;-70
2021/06/05 08:39:09;;;;;;;20.23;18.10;;;24.20;68.10;;;;;;5034449;28;20048;-70
2021/06/05 08:41:39;;;;;;;22.23;17.50;;;24.10;68.50;;;;;;5036107;28;20025;-70
2021/06/05 08:44:16;;;;;;;20.35;18.55;;;24.00;68.60;;;;;;5036490;28;20032;-70
2021/06/05 08:46:45;;;;;;;18.52;16.67;;;23.90;68.90;;;;;;5036890;28;20398;-70
2021/06/05 08:49:17;;;;;;;20.42;17.30;;;24.10;69.10;;;;;;5036268;28;20042;-70
2021/06/05 08:52:08;;;;;;;19.75;17.75;;;24.10;69.00;;;;;;5038085;28;20036;-70
2021/06/05 08:54:53;;;;;;;21.40;19.50;;;24.10;68.70;;;;;;5037084;28;20108;-70
2021/06/05 08:57:42;;;;;;;20.30;16.85;;;24.10;69.10;;;;;;5035024;28;20429;-70
2021/06/05 09:00:34;;;;;;;19.55;16.88;;;24.30;69.00;;;;;;5019129;28;20049;-70
2021/06/05 09:03:03;;;;;;;18.42;16.73;;;24.60;69.20;;;;;;5019626;28;20108;-70
2021/06/05 09:05:46;;;;;;;18.95;17.08;;;24.80;68.60;;;;;;5036826;28;20495;-70
2021/06/05 09:08:18;;;;;;;18.60;16.60;;;24.90;68.50;;;;;;5036876;28;20037;-70
2021/06/05 09:10:45;;;;;;;19.98;17.92;;;24.90;68.40;;;;;;5037497;28;20444;-70
2021/06/05 09:13:11;;;;;;;17.02;15.43;;;25.10;68.10;;;;;;5035438;28;20130;-70
2021/06/05 09:15:36;;;;;;;21.08;18.85;;;25.10;68.20;;;;;;5036934;28;20021;-70
2021/06/05 09:18:06;;;;;;;16.77;14.98;;;25.10;68.20;;;;;;5036608;28;20029;-70
2021/06/05 09:20:43;;;;;;;51.08;19.88;;;25.00;68.40;;;;;;5037048;28;20095;-70
2021/06/05 09:23:20;;;;;;;49.25;19.17;;;25.10;68.30;;;;;;5037227;28;20029;-70
2021/06/05 09:25:46;;;;;;;42.35;19.80;;;25.10;68.00;;;;;;5034772;28;20547;-70
2021/06/05 09:28:23;;;;;;;20.00;17.85;;;25.10;67.70;;;;;;5026957;28;20124;-70
2021/06/05 09:31:10;;;;;;;20.95;18.90;;;25.10;67.10;;;;;;5031472;28;20036;-71
2021/06/05 09:33:36;;;;;;;17.48;15.80;;;25.00;67.10;;;;;;5035516;28;20061;-71
2021/06/05 09:36:20;;;;;;;18.08;16.35;;;24.70;67.10;;;;;;5034702;28;20570;-71
2021/06/05 09:39:04;;;;;;;17.88;15.63;;;24.50;68.10;;;;;;5035881;28;20028;-71
2021/06/05 09:41:36;;;;;;;17.15;15.38;;;24.70;68.40;;;;;;5034076;28;20196;-71
2021/06/05 09:44:28;;;;;;;36.05;18.42;;;25.00;68.00;;;;;;5034306;28;20033;-71
2021/06/05 09:47:10;;;;;;;17.25;14.85;;;25.30;67.40;;;;;;5034757;28;20139;-71
2021/06/05 09:49:47;;;;;;;17.27;14.68;;;25.50;67.40;;;;;;5035564;28;20033;-70
2021/06/05 09:52:26;;;;;;;14.00;12.65;;;25.70;66.40;;;;;;5039558;28;20124;-70
2021/06/05 09:54:55;;;;;;;15.38;13.85;;;25.70;66.40;;;;;;5038630;28;20043;-70
2021/06/05 09:57:30;;;;;;;16.45;15.15;;;25.80;66.30;;;;;;5029593;28;20025;-69
2021/06/05 10:00:13;;;;;;;17.52;15.85;;;25.70;65.80;;;;;;5036861;28;20074;-69
2021/06/05 10:02:43;;;;;;;15.75;14.30;;;25.50;65.70;;;;;;5026491;28;20041;-69
2021/06/05 10:05:17;;;;;;;14.35;13.02;;;25.50;65.90;;;;;;5025941;28;20028;-70
2021/06/05 10:07:43;;;;;;;13.18;11.90;;;25.70;65.40;;;;;;5016087;28;21485;-70
2021/06/05 10:10:32;;;;;;;14.48;13.27;;;25.90;65.60;;;;;;5015738;28;20126;-70
2021/06/05 10:13:02;;;;;;;17.45;14.52;;;26.20;65.30;;;;;;5014540;28;20041;-70
2021/06/05 10:15:42;;;;;;;22.73;20.40;;;26.20;64.60;;;;;;5021794;28;20128;-71
2021/06/05 10:18:11;;;;;;;17.13;14.70;;;26.20;64.40;;;;;;5023253;28;20029;-69
2021/06/05 10:20:52;;;;;;;15.73;14.27;;;26.10;65.10;;;;;;5017639;28;20086;-69
2021/06/05 10:23:28;;;;;;;15.00;13.30;;;26.20;64.80;;;;;;5021525;28;20113;-69
2021/06/05 10:26:04;;;;;;;13.00;11.85;;;26.20;65.20;;;;;;5029881;28;20041;-69
2021/06/05 10:28:32;;;;;;;;;;;26.50;64.70;;;;;;4999529;28;20033;-69
2021/06/05 10:31:04;;;;;;;19.35;17.08;;;26.50;63.90;;;;;;5014468;28;20447;-69
2021/06/05 10:33:57;;;;;;;11.63;10.45;;;26.50;63.00;;;;;;5022809;28;20033;-70
2021/06/05 10:36:28;;;;;;;13.38;12.02;;;26.70;63.10;;;;;;5017944;28;20028;-70
2021/06/05 10:38:59;;;;;;;15.48;14.00;;;26.70;61.30;;;;;;5037237;28;20079;-69
2021/06/05 10:41:31;;;;;;;15.52;13.43;;;26.50;62.70;;;;;;5040154;28;20396;-69
2021/06/05 10:43:57;;;;;;;13.85;12.68;;;26.20;63.40;;;;;;5039113;28;20092;-69
2021/06/05 10:46:30;;;;;;;13.70;12.32;;;26.20;64.20;;;;;;5040068;28;20505;-69
2021/06/05 10:49:10;;;;;;;16.38;14.50;;;26.50;64.10;;;;;;5038825;28;20044;-69
2021/06/05 10:51:42;;;;;;;18.50;16.58;;;27.00;64.10;;;;;;5039563;28;20068;-69
2021/06/05 10:54:22;;;;;;;14.13;12.93;;;27.20;63.30;;;;;;5040701;28;20075;-70
2021/06/05 10:57:05;;;;;;;21.02;16.92;;;27.40;62.80;;;;;;5030884;28;20017;-70
2021/06/05 10:59:53;;;;;;;23.35;20.98;;;27.50;63.00;;;;;;5039862;28;20033;-70
2021/06/05 11:02:39;;;;;;;17.20;15.20;;;27.60;62.80;;;;;;5040870;28;20396;-70
2021/06/05 11:05:16;;;;;;;16.58;14.75;;;27.70;62.50;;;;;;5022960;28;20029;-69
2021/06/05 11:07:43;;;;;;;15.70;14.30;;;27.60;62.50;;;;;;5038883;28;20492;-69
2021/06/05 11:10:10;;;;;;;17.40;15.70;;;27.60;62.70;;;;;;5038431;28;20575;-69
2021/06/05 11:12:35;;;;;;;16.13;14.63;;;27.50;62.10;;;;;;5040741;28;20025;-70
2021/06/05 11:15:01;;;;;;;17.88;16.25;;;27.40;62.30;;;;;;5040671;28;20025;-70
2021/06/05 11:17:37;;;;;;;34.80;31.02;;;27.30;62.50;;;;;;5040286;28;20017;-70
2021/06/05 11:20:04;;;;;;;;;;;27.40;61.80;;;;;;5039891;28;20056;-69
2021/06/05 11:22:52;;;;;;;12.02;10.93;;;27.40;61.80;;;;;;5040952;28;19924;-70
2021/06/05 11:25:30;;;;;;;10.32;9.48;;;27.50;61.90;;;;;;5038651;28;20053;-70
2021/06/05 11:27:56;;;;;;;10.57;9.57;;;27.70;62.20;;;;;;5039476;28;20021;-69
2021/06/05 11:30:21;;;;;;;10.63;9.63;;;28.00;61.40;;;;;;5040614;28;20087;-70
2021/06/05 11:33:05;;;;;;;23.45;20.95;;;28.00;61.20;;;;;;5040652;28;20396;-70
2021/06/05 11:35:42;;;;;;;22.02;19.60;;;28.00;60.40;;;;;;5039003;28;20013;-69
2021/06/05 11:38:17;;;;;;;11.63;10.43;;;27.90;60.30;;;;;;5037391;28;20064;-70
2021/06/05 11:41:00;;;;;;;33.70;29.35;;;27.80;61.00;;;;;;5040357;28;20494;-70
2021/06/05 11:43:29;;;;;;;9.85;8.85;;;27.80;61.10;;;;;;5038334;28;20059;-69
2021/06/05 11:46:09;;;;;;;7.25;6.60;;;28.00;61.20;;;;;;5039719;28;20057;-69
2021/06/05 11:48:44;;;;;;;6.65;5.95;;;28.30;60.00;;;;;;5038828;28;20017;-70
2021/06/05 11:51:21;;;;;;;8.02;6.40;;;28.50;59.30;;;;;;5039672;28;20029;-69
2021/06/05 11:54:10;;;;;;;6.63;6.00;;;28.60;59.20;;;;;;5039861;28;20025;-70
2021/06/05 11:56:53;;;;;;;5.60;5.22;;;28.80;58.20;;;;;;5030634;28;20083;-70
2021/06/05 11:59:34;;;;;;;5.95;4.97;;;28.90;58.60;;;;;;5039220;28;20049;-70
2021/06/05 12:02:11;;;;;;;8.68;7.45;;;28.90;56.80;;;;;;5037417;28;20021;-70
2021/06/05 12:04:44;;;;;;;9.38;8.57;;;28.90;57.70;;;;;;5021425;28;20488;-70
2021/06/05 12:07:22;;;;;;;10.77;9.70;;;28.90;57.90;;;;;;5038882;28;20037;-69
2021/06/05 12:09:49;;;;;;;11.65;9.65;;;29.00;58.00;;;;;;5038298;28;20021;-70
2021/06/05 12:12:15;;;;;;;10.57;9.48;;;28.80;58.60;;;;;;5022316;28;20450;-70
2021/06/05 12:17:33;;;;;;;9.85;8.90;;;28.80;59.00;;;;;;5038047;28;20048;-69
2021/06/05 12:20:20;;;;;;;10.25;9.32;;;28.70;59.30;;;;;;5038576;28;20032;-69
2021/06/05 12:22:49;;;;;;;10.27;9.15;;;28.60;59.50;;;;;;5039540;28;20030;-70
2021/06/05 12:25:26;;;;;;;9.48;5.50;;;28.40;59.10;;;;;;5039214;28;20307;-70
2021/06/05 12:27:52;;;;;;;8.77;5.22;;;28.10;58.70;;;;;;5038641;28;20151;-69
2021/06/05 12:30:24;;;;;;;2.97;2.65;;;27.60;58.50;;;;;;5021296;28;20543;-69
2021/06/05 12:33:00;;;;;;;4.07;2.50;;;27.10;58.60;;;;;;5037503;28;20026;-69
2021/06/05 12:35:33;;;;;;;5.90;3.13;;;26.80;59.00;;;;;;5038891;28;20029;-70
2021/06/05 12:37:59;;;;;;;5.25;3.83;;;26.50;59.90;;;;;;5037239;28;20094;-70
2021/06/05 12:40:45;;;;;;;12.60;5.18;;;26.30;60.90;;;;;;5039249;28;20480;-70
2021/06/05 12:43:15;;;;;;;6.22;5.28;;;26.20;61.40;;;;;;5021453;28;20420;-69
2021/06/05 12:45:41;;;;;;;10.98;5.60;;;26.30;61.80;;;;;;5038875;28;20025;-69
2021/06/05 12:48:11;;;;;;;5.65;4.60;;;26.30;61.60;;;;;;5036654;28;20052;-70